Time,TemperatureF,DewpointF,PressureIn,WindDirection,WindDirectionDegrees,WindSpeedMPH,WindSpeedGustMPH,Humidity,HourlyPrecipIn,Conditions,Clouds,dailyrainin,SoftwareType,DateUTC
2013-06-04 00:52:00,46.0,35.0,-100.00,NE,35,0.0,1.0,66,-99.99,,,-99.99,,2013-06-04 05:52:00,
2013-06-04 01:02:00,46.0,35.0,-100.00,NE,35,0.0,1.0,66,-99.99,,,-99.99,,2013-06-04 06:02:00,
2013-06-04 01:12:00,46.0,35.0,-100.00,NE,35,0.0,1.0,66,-99.99,,,-99.99,,2013-06-04 06:12:00,
2013-06-04 01:22:00,46.0,35.0,-100.00,NE,35,0.0,1.0,66,-99.99,,,-99.99,,2013-06-04 06:22:00,
2013-06-04 01:52:00,46.0,38.0,-100.00,ESE,110,2.0,4.0,73,-99.99,,,-99.99,,2013-06-04 06:52:00,
2013-06-04 02:02:00,46.0,38.0,-100.00,ESE,110,2.0,4.0,73,-99.99,,,-99.99,,2013-06-04 07:02:00,
2013-06-04 02:12:00,46.0,38.0,-100.00,ESE,110,2.0,4.0,73,-99.99,,,-99.99,,2013-06-04 07:12:00,
2013-06-04 02:22:00,46.0,38.0,-100.00,ESE,110,2.0,4.0,73,-99.99,,,-99.99,,2013-06-04 07:22:00,
2013-06-04 02:52:00,43.0,36.0,-100.00,North,350,1.0,2.0,77,-99.99,,,-99.99,,2013-06-04 07:52:00,
2013-06-04 03:02:00,43.0,36.0,-100.00,North,350,1.0,2.0,77,-99.99,,,-99.99,,2013-06-04 08:02:00,
2013-06-04 03:12:00,43.0,36.0,-100.00,North,350,1.0,2.0,77,-99.99,,,-99.99,,2013-06-04 08:12:00,
2013-06-04 03:22:00,43.0,36.0,-100.00,North,350,1.0,2.0,77,-99.99,,,-99.99,,2013-06-04 08:22:00,
2013-06-04 03:52:00,40.0,37.0,-100.00,SE,130,1.0,2.0,88,-99.99,,,-99.99,,2013-06-04 08:52:00,
2013-06-04 04:02:00,40.0,37.0,-100.00,SE,130,1.0,2.0,88,-99.99,,,-99.99,,2013-06-04 09:02:00,
2013-06-04 04:12:00,40.0,37.0,-100.00,SE,130,1.0,2.0,88,-99.99,,,-99.99,,2013-06-04 09:12:00,
2013-06-04 04:22:00,40.0,37.0,-100.00,SE,130,1.0,2.0,88,-99.99,,,-99.99,,2013-06-04 09:22:00,
2013-06-04 04:53:00,44.0,42.0,-100.00,WSW,240,0.0,1.0,92,-99.99,,,-99.99,,2013-06-04 09:53:00,
2013-06-04 05:02:00,44.0,42.0,-100.00,WSW,240,0.0,1.0,92,-99.99,,,-99.99,,2013-06-04 10:02:00,
2013-06-04 05:12:00,44.0,42.0,-100.00,WSW,240,0.0,1.0,92,-99.99,,,-99.99,,2013-06-04 10:12:00,
2013-06-04 05:23:00,44.0,42.0,-100.00,WSW,240,0.0,1.0,92,-99.99,,,-99.99,,2013-06-04 10:23:00,
2013-06-04 05:53:00,45.0,43.0,-100.00,WSW,255,0.0,0.0,91,-99.99,,,-99.99,,2013-06-04 10:53:00,
2013-06-04 06:02:00,45.0,43.0,-100.00,WSW,255,0.0,0.0,91,-99.99,,,-99.99,,2013-06-04 11:02:00,
2013-06-04 06:12:00,45.0,43.0,-100.00,WSW,255,0.0,0.0,91,-99.99,,,-99.99,,2013-06-04 11:12:00,
2013-06-04 06:22:00,45.0,43.0,-100.00,WSW,255,0.0,0.0,91,-99.99,,,-99.99,,2013-06-04 11:22:00,
2013-06-04 06:52:00,47.0,44.0,-100.00,SE,125,2.0,4.0,87,-99.99,,,-99.99,,2013-06-04 11:52:00,
2013-06-04 07:02:00,47.0,44.0,-100.00,SE,125,2.0,4.0,87,-99.99,,,-99.99,,2013-06-04 12:02:00,
2013-06-04 07:12:00,47.0,44.0,-100.00,SE,125,2.0,4.0,87,-99.99,,,-99.99,,2013-06-04 12:12:00,
2013-06-04 07:22:00,47.0,44.0,-100.00,SE,125,2.0,4.0,87,-99.99,,,-99.99,,2013-06-04 12:22:00,
2013-06-04 07:53:00,50.0,39.0,-100.00,SSE,160,4.0,7.0,66,-99.99,,,-99.99,,2013-06-04 12:53:00,
2013-06-04 08:02:00,50.0,39.0,-100.00,SSE,160,4.0,7.0,66,-99.99,,,-99.99,,2013-06-04 13:02:00,
2013-06-04 08:12:00,50.0,39.0,-100.00,SSE,160,4.0,7.0,66,-99.99,,,-99.99,,2013-06-04 13:12:00,
2013-06-04 08:22:00,50.0,39.0,-100.00,SSE,160,4.0,7.0,66,-99.99,,,-99.99,,2013-06-04 13:22:00,
2013-06-04 09:52:00,54.0,32.0,-100.00,SE,140,7.0,14.0,43,-99.99,,,-99.99,,2013-06-04 14:52:00,
2013-06-04 10:02:00,54.0,32.0,-100.00,SE,140,7.0,14.0,43,-99.99,,,-99.99,,2013-06-04 15:02:00,
2013-06-04 10:12:00,54.0,32.0,-100.00,SE,140,7.0,14.0,43,-99.99,,,-99.99,,2013-06-04 15:12:00,
2013-06-04 10:22:00,54.0,32.0,-100.00,SE,140,7.0,14.0,43,-99.99,,,-99.99,,2013-06-04 15:22:00,
2013-06-04 10:53:00,56.0,33.0,-100.00,SSE,150,6.0,11.0,41,-99.99,,,-99.99,,2013-06-04 15:53:00,
2013-06-04 11:03:00,56.0,33.0,-100.00,SSE,150,6.0,11.0,41,-99.99,,,-99.99,,2013-06-04 16:03:00,
2013-06-04 11:12:00,56.0,33.0,-100.00,SSE,150,6.0,11.0,41,-99.99,,,-99.99,,2013-06-04 16:12:00,
2013-06-04 11:22:00,56.0,33.0,-100.00,SSE,150,6.0,11.0,41,-99.99,,,-99.99,,2013-06-04 16:22:00,
2013-06-04 13:53:00,60.0,37.0,-100.00,SSE,160,4.0,9.0,43,-99.99,,,-99.99,,2013-06-04 18:53:00,
2013-06-04 14:02:00,60.0,37.0,-100.00,SSE,160,4.0,9.0,43,-99.99,,,-99.99,,2013-06-04 19:02:00,
2013-06-04 14:12:00,60.0,37.0,-100.00,SSE,160,4.0,9.0,43,-99.99,,,-99.99,,2013-06-04 19:12:00,
2013-06-04 14:22:00,60.0,37.0,-100.00,SSE,160,4.0,9.0,43,-99.99,,,-99.99,,2013-06-04 19:22:00,
2013-06-04 14:52:00,59.0,38.0,-100.00,SSE,155,6.0,11.0,46,-99.99,,,-99.99,,2013-06-04 19:52:00,
2013-06-04 15:03:00,59.0,38.0,-100.00,SSE,155,6.0,11.0,46,-99.99,,,-99.99,,2013-06-04 20:03:00,
2013-06-04 15:12:00,59.0,38.0,-100.00,SSE,155,6.0,11.0,46,-99.99,,,-99.99,,2013-06-04 20:12:00,
2013-06-04 15:22:00,59.0,38.0,-100.00,SSE,155,6.0,11.0,46,-99.99,,,-99.99,,2013-06-04 20:22:00,
2013-06-04 15:53:00,58.0,39.0,-100.00,SSE,155,6.0,9.0,50,-99.99,,,-99.99,,2013-06-04 20:53:00,
2013-06-04 16:02:00,58.0,39.0,-100.00,SSE,155,6.0,9.0,50,-99.99,,,-99.99,,2013-06-04 21:02:00,
2013-06-04 16:12:00,58.0,39.0,-100.00,SSE,155,6.0,9.0,50,-99.99,,,-99.99,,2013-06-04 21:12:00,
2013-06-04 16:22:00,58.0,39.0,-100.00,SSE,155,6.0,9.0,50,-99.99,,,-99.99,,2013-06-04 21:22:00,
2013-06-04 17:52:00,56.0,45.0,-100.00,South,170,2.0,6.0,67,-99.99,,,-99.99,,2013-06-04 22:52:00,
2013-06-04 18:02:00,56.0,45.0,-100.00,South,170,2.0,6.0,67,-99.99,,,-99.99,,2013-06-04 23:02:00,
2013-06-04 18:12:00,56.0,45.0,-100.00,South,170,2.0,6.0,67,-99.99,,,-99.99,,2013-06-04 23:12:00,
2013-06-04 18:22:00,56.0,45.0,-100.00,South,170,2.0,6.0,67,-99.99,,,-99.99,,2013-06-04 23:22:00,
2013-06-04 19:52:00,54.0,51.0,-100.00,ESE,115,1.0,4.0,91,-99.99,,,-99.99,,2013-06-05 00:52:00,
2013-06-04 20:02:00,54.0,51.0,-100.00,ESE,115,1.0,4.0,91,-99.99,,,-99.99,,2013-06-05 01:02:00,
2013-06-04 20:12:00,54.0,51.0,-100.00,ESE,115,1.0,4.0,91,-99.99,,,-99.99,,2013-06-05 01:12:00,
2013-06-04 20:22:00,54.0,51.0,-100.00,ESE,115,1.0,4.0,91,-99.99,,,-99.99,,2013-06-05 01:22:00,
2013-06-04 20:52:00,53.0,51.0,-100.00,SSW,205,1.0,4.0,93,-99.99,,,-99.99,,2013-06-05 01:52:00,
2013-06-04 21:02:00,53.0,51.0,-100.00,SSW,205,1.0,4.0,93,-99.99,,,-99.99,,2013-06-05 02:02:00,
2013-06-04 21:12:00,53.0,51.0,-100.00,SSW,205,1.0,4.0,93,-99.99,,,-99.99,,2013-06-05 02:12:00,
2013-06-04 21:22:00,53.0,51.0,-100.00,SSW,205,1.0,4.0,93,-99.99,,,-99.99,,2013-06-05 02:22:00,
2013-06-04 21:52:00,52.0,51.0,-100.00,NE,45,1.0,2.0,96,-99.99,,,-99.99,,2013-06-05 02:52:00,
2013-06-04 22:02:00,52.0,51.0,-100.00,NE,45,1.0,2.0,96,-99.99,,,-99.99,,2013-06-05 03:02:00,
2013-06-04 22:12:00,52.0,51.0,-100.00,NE,45,1.0,2.0,96,-99.99,,,-99.99,,2013-06-05 03:12:00,
2013-06-04 22:22:00,52.0,51.0,-100.00,NE,45,1.0,2.0,96,-99.99,,,-99.99,,2013-06-05 03:22:00,
2013-06-04 22:53:00,51.0,50.0,-100.00,SE,140,3.0,7.0,97,-99.99,,,-99.99,,2013-06-05 03:53:00,
2013-06-04 23:02:00,51.0,50.0,-100.00,SE,140,3.0,7.0,97,-99.99,,,-99.99,,2013-06-05 04:02:00,
2013-06-04 23:13:00,51.0,50.0,-100.00,SE,140,3.0,7.0,97,-99.99,,,-99.99,,2013-06-05 04:13:00,
2013-06-04 23:23:00,51.0,50.0,-100.00,SE,140,3.0,7.0,97,-99.99,,,-99.99,,2013-06-05 04:23:00,
2013-06-04 23:53:00,51.0,49.0,-100.00,SSE,165,4.0,6.0,96,-99.99,,,-99.99,,2013-06-05 04:53:00,